sensor_id;sensor_type;location;lat;lon;timestamp;P1;durP1;ratioP1;P2;durP2;ratioP2
2824;SDS011;1420;51.324;12.344;2023-03-26T00:01:12;270.88;;;250.47;;
2824;SDS011;1420;51.324;12.344;2023-03-26T00:03:39;89.02;;;82.33;;
2824;SDS011;1420;51.324;12.344;2023-03-26T00:06:07;43.37;;;39.00;;
2824;SDS011;1420;51.324;12.344;2023-03-26T00:08:34;74.42;;;68.28;;
2824;SDS011;1420;51.324;12.344;2023-03-26T00:11:03;105.97;;;98.52;;
2824;SDS011;1420;51.324;12.344;2023-03-26T00:13:30;93.32;;;86.55;;
2824;SDS011;1420;51.324;12.344;2023-03-26T00:15:57;39.13;;;35.08;;
2824;SDS011;1420;51.324;12.344;2023-03-26T00:18:24;55.13;;;50.38;;
2824;SDS011;1420;51.324;12.344;2023-03-26T00:20:52;75.55;;;69.92;;
2824;SDS011;1420;51.324;12.344;2023-03-26T00:23:19;38.92;;;35.10;;
2824;SDS011;1420;51.324;12.344;2023-03-26T00:25:50;67.85;;;60.42;;
2824;SDS011;1420;51.324;12.344;2023-03-26T00:28:17;41.67;;;37.57;;
2824;SDS011;1420;51.324;12.344;2023-03-26T00:30:44;194.17;;;181.17;;
2824;SDS011;1420;51.324;12.344;2023-03-26T00:33:11;214.90;;;183.77;;
2824;SDS011;1420;51.324;12.344;2023-03-26T00:35:39;69.23;;;63.52;;
2824;SDS011;1420;51.324;12.344;2023-03-26T00:38:07;221.95;;;203.83;;
2824;SDS011;1420;51.324;12.344;2023-03-26T00:40:34;33.80;;;25.37;;
2824;SDS011;1420;51.324;12.344;2023-03-26T00:43:02;33.48;;;27.43;;
2824;SDS011;1420;51.324;12.344;2023-03-26T00:45:30;45.07;;;40.95;;
2824;SDS011;1420;51.324;12.344;2023-03-26T00:47:57;35.87;;;26.63;;
2824;SDS011;1420;51.324;12.344;2023-03-26T00:50:24;91.52;;;84.92;;
2824;SDS011;1420;51.324;12.344;2023-03-26T00:52:51;63.45;;;58.28;;
2824;SDS011;1420;51.324;12.344;2023-03-26T00:55:18;115.43;;;106.70;;
2824;SDS011;1420;51.324;12.344;2023-03-26T00:57:46;54.65;;;49.43;;
2824;SDS011;1420;51.324;12.344;2023-03-26T01:00:15;97.43;;;90.42;;
2824;SDS011;1420;51.324;12.344;2023-03-26T01:02:42;51.40;;;45.77;;
2824;SDS011;1420;51.324;12.344;2023-03-26T01:07:49;51.05;;;46.58;;
2824;SDS011;1420;51.324;12.344;2023-03-26T01:10:17;62.08;;;57.18;;
2824;SDS011;1420;51.324;12.344;2023-03-26T01:12:45;54.12;;;49.48;;
2824;SDS011;1420;51.324;12.344;2023-03-26T01:15:13;43.37;;;39.57;;
2824;SDS011;1420;51.324;12.344;2023-03-26T01:17:40;99.90;;;92.52;;
2824;SDS011;1420;51.324;12.344;2023-03-26T01:20:11;133.17;;;124.42;;
2824;SDS011;1420;51.324;12.344;2023-03-26T01:22:37;40.77;;;36.58;;
2824;SDS011;1420;51.324;12.344;2023-03-26T01:25:04;40.47;;;36.25;;
2824;SDS011;1420;51.324;12.344;2023-03-26T01:27:34;90.57;;;84.02;;
2824;SDS011;1420;51.324;12.344;2023-03-26T01:30:19;43.13;;;38.67;;
2824;SDS011;1420;51.324;12.344;2023-03-26T01:32:54;91.47;;;82.00;;
2824;SDS011;1420;51.324;12.344;2023-03-26T01:35:31;201.07;;;186.20;;
2824;SDS011;1420;51.324;12.344;2023-03-26T01:38:05;80.60;;;72.07;;
2824;SDS011;1420;51.324;12.344;2023-03-26T01:40:34;153.13;;;143.50;;
2824;SDS011;1420;51.324;12.344;2023-03-26T01:45:43;365.27;;;335.25;;
2824;SDS011;1420;51.324;12.344;2023-03-26T01:48:11;71.47;;;65.77;;
2824;SDS011;1420;51.324;12.344;2023-03-26T01:50:39;36.05;;;30.97;;
2824;SDS011;1420;51.324;12.344;2023-03-26T01:53:06;461.50;;;399.88;;
2824;SDS011;1420;51.324;12.344;2023-03-26T01:55:36;345.83;;;314.70;;
2824;SDS011;1420;51.324;12.344;2023-03-26T01:58:11;196.97;;;169.05;;
2824;SDS011;1420;51.324;12.344;2023-03-26T02:00:38;59.48;;;54.62;;
2824;SDS011;1420;51.324;12.344;2023-03-26T02:03:23;86.93;;;80.37;;
2824;SDS011;1420;51.324;12.344;2023-03-26T02:05:56;120.45;;;112.25;;
2824;SDS011;1420;51.324;12.344;2023-03-26T02:08:30;115.97;;;107.45;;
2824;SDS011;1420;51.324;12.344;2023-03-26T02:10:56;213.53;;;197.57;;
2824;SDS011;1420;51.324;12.344;2023-03-26T02:13:23;34.50;;;30.38;;
2824;SDS011;1420;51.324;12.344;2023-03-26T02:15:56;151.62;;;140.23;;
2824;SDS011;1420;51.324;12.344;2023-03-26T02:18:23;34.28;;;28.67;;
2824;SDS011;1420;51.324;12.344;2023-03-26T02:20:51;87.13;;;79.95;;
2824;SDS011;1420;51.324;12.344;2023-03-26T02:23:19;106.42;;;98.98;;
2824;SDS011;1420;51.324;12.344;2023-03-26T02:25:46;151.82;;;141.80;;
2824;SDS011;1420;51.324;12.344;2023-03-26T02:28:13;85.18;;;78.40;;
2824;SDS011;1420;51.324;12.344;2023-03-26T02:30:40;31.58;;;26.65;;
2824;SDS011;1420;51.324;12.344;2023-03-26T02:33:07;41.28;;;37.28;;
2824;SDS011;1420;51.324;12.344;2023-03-26T02:35:35;58.57;;;53.82;;
2824;SDS011;1420;51.324;12.344;2023-03-26T02:38:03;99.75;;;92.45;;
2824;SDS011;1420;51.324;12.344;2023-03-26T02:40:31;146.98;;;134.33;;
2824;SDS011;1420;51.324;12.344;2023-03-26T02:42:59;87.73;;;80.88;;
2824;SDS011;1420;51.324;12.344;2023-03-26T02:45:27;353.65;;;324.87;;
2824;SDS011;1420;51.324;12.344;2023-03-26T02:47:54;34.90;;;30.02;;
2824;SDS011;1420;51.324;12.344;2023-03-26T02:50:22;46.52;;;42.37;;
2824;SDS011;1420;51.324;12.344;2023-03-26T02:52:49;96.67;;;88.88;;
2824;SDS011;1420;51.324;12.344;2023-03-26T02:55:16;35.97;;;32.58;;
2824;SDS011;1420;51.324;12.344;2023-03-26T02:57:43;44.77;;;40.98;;
2824;SDS011;1420;51.324;12.344;2023-03-26T03:00:11;31.88;;;22.32;;
2824;SDS011;1420;51.324;12.344;2023-03-26T03:02:38;31.22;;;28.12;;
2824;SDS011;1420;51.324;12.344;2023-03-26T03:05:05;46.80;;;43.07;;
2824;SDS011;1420;51.324;12.344;2023-03-26T03:07:33;257.02;;;234.93;;
2824;SDS011;1420;51.324;12.344;2023-03-26T03:10:00;107.68;;;98.00;;
2824;SDS011;1420;51.324;12.344;2023-03-26T03:12:27;60.63;;;56.27;;
2824;SDS011;1420;51.324;12.344;2023-03-26T03:14:54;47.75;;;43.62;;
2824;SDS011;1420;51.324;12.344;2023-03-26T03:17:22;407.53;;;375.98;;
2824;SDS011;1420;51.324;12.344;2023-03-26T03:19:49;167.27;;;156.73;;
2824;SDS011;1420;51.324;12.344;2023-03-26T03:22:17;239.35;;;223.65;;
2824;SDS011;1420;51.324;12.344;2023-03-26T03:24:45;77.08;;;71.38;;
2824;SDS011;1420;51.324;12.344;2023-03-26T03:27:13;95.17;;;88.92;;
2824;SDS011;1420;51.324;12.344;2023-03-26T03:29:41;33.15;;;29.40;;
2824;SDS011;1420;51.324;12.344;2023-03-26T03:32:09;30.45;;;27.25;;
2824;SDS011;1420;51.324;12.344;2023-03-26T03:34:37;33.65;;;30.52;;
2824;SDS011;1420;51.324;12.344;2023-03-26T03:37:05;42.83;;;39.22;;
2824;SDS011;1420;51.324;12.344;2023-03-26T03:39:33;107.07;;;99.77;;
2824;SDS011;1420;51.324;12.344;2023-03-26T03:42:01;95.37;;;88.82;;
2824;SDS011;1420;51.324;12.344;2023-03-26T03:44:29;41.52;;;37.72;;
2824;SDS011;1420;51.324;12.344;2023-03-26T03:46:57;97.13;;;90.62;;
2824;SDS011;1420;51.324;12.344;2023-03-26T03:49:25;194.10;;;182.33;;
2824;SDS011;1420;51.324;12.344;2023-03-26T03:51:53;43.97;;;39.95;;
2824;SDS011;1420;51.324;12.344;2023-03-26T03:54:21;79.12;;;72.62;;
2824;SDS011;1420;51.324;12.344;2023-03-26T03:56:48;98.27;;;91.68;;
2824;SDS011;1420;51.324;12.344;2023-03-26T03:59:15;50.43;;;45.90;;
2824;SDS011;1420;51.324;12.344;2023-03-26T04:01:42;195.93;;;183.37;;
2824;SDS011;1420;51.324;12.344;2023-03-26T04:04:09;23.25;;;19.92;;
2824;SDS011;1420;51.324;12.344;2023-03-26T04:06:37;237.53;;;217.25;;
2824;SDS011;1420;51.324;12.344;2023-03-26T04:09:04;91.10;;;84.47;;
2824;SDS011;1420;51.324;12.344;2023-03-26T04:11:31;37.13;;;32.28;;
2824;SDS011;1420;51.324;12.344;2023-03-26T04:13:58;35.00;;;31.52;;
2824;SDS011;1420;51.324;12.344;2023-03-26T04:16:25;400.25;;;371.47;;
2824;SDS011;1420;51.324;12.344;2023-03-26T04:18:53;118.82;;;111.12;;
2824;SDS011;1420;51.324;12.344;2023-03-26T04:21:21;51.90;;;47.30;;
2824;SDS011;1420;51.324;12.344;2023-03-26T04:23:49;339.93;;;309.67;;
2824;SDS011;1420;51.324;12.344;2023-03-26T04:26:17;115.55;;;106.37;;
2824;SDS011;1420;51.324;12.344;2023-03-26T04:28:46;131.18;;;123.25;;
2824;SDS011;1420;51.324;12.344;2023-03-26T04:31:15;244.17;;;228.33;;
2824;SDS011;1420;51.324;12.344;2023-03-26T04:33:43;205.45;;;189.62;;
2824;SDS011;1420;51.324;12.344;2023-03-26T04:36:09;26.10;;;13.75;;
2824;SDS011;1420;51.324;12.344;2023-03-26T04:38:40;58.83;;;53.88;;
2824;SDS011;1420;51.324;12.344;2023-03-26T04:41:07;90.47;;;83.32;;
2824;SDS011;1420;51.324;12.344;2023-03-26T04:43:33;63.80;;;58.38;;
2824;SDS011;1420;51.324;12.344;2023-03-26T04:46:01;31.70;;;22.60;;
2824;SDS011;1420;51.324;12.344;2023-03-26T04:48:29;39.05;;;24.57;;
2824;SDS011;1420;51.324;12.344;2023-03-26T04:50:56;34.72;;;29.23;;
2824;SDS011;1420;51.324;12.344;2023-03-26T04:53:23;30.87;;;24.35;;
2824;SDS011;1420;51.324;12.344;2023-03-26T04:55:52;79.28;;;71.30;;
2824;SDS011;1420;51.324;12.344;2023-03-26T04:58:35;43.08;;;36.37;;
2824;SDS011;1420;51.324;12.344;2023-03-26T05:01:02;32.37;;;21.47;;
2824;SDS011;1420;51.324;12.344;2023-03-26T05:03:29;28.65;;;14.77;;
2824;SDS011;1420;51.324;12.344;2023-03-26T05:05:57;31.42;;;22.58;;
2824;SDS011;1420;51.324;12.344;2023-03-26T05:08:24;30.20;;;21.00;;
2824;SDS011;1420;51.324;12.344;2023-03-26T05:10:51;34.43;;;23.93;;
2824;SDS011;1420;51.324;12.344;2023-03-26T05:13:18;25.90;;;14.27;;
2824;SDS011;1420;51.324;12.344;2023-03-26T05:15:45;36.47;;;27.95;;
2824;SDS011;1420;51.324;12.344;2023-03-26T05:18:13;55.75;;;50.30;;
2824;SDS011;1420;51.324;12.344;2023-03-26T05:20:40;51.82;;;46.67;;
2824;SDS011;1420;51.324;12.344;2023-03-26T05:23:07;34.42;;;27.87;;
2824;SDS011;1420;51.324;12.344;2023-03-26T05:25:35;30.17;;;15.62;;
2824;SDS011;1420;51.324;12.344;2023-03-26T05:28:03;31.92;;;22.18;;
2824;SDS011;1420;51.324;12.344;2023-03-26T05:30:30;31.28;;;19.87;;
2824;SDS011;1420;51.324;12.344;2023-03-26T05:32:57;36.15;;;29.18;;
2824;SDS011;1420;51.324;12.344;2023-03-26T05:35:25;38.12;;;26.38;;
2824;SDS011;1420;51.324;12.344;2023-03-26T05:37:52;29.93;;;18.50;;
2824;SDS011;1420;51.324;12.344;2023-03-26T05:40:19;43.60;;;39.25;;
2824;SDS011;1420;51.324;12.344;2023-03-26T05:42:47;35.10;;;28.27;;
2824;SDS011;1420;51.324;12.344;2023-03-26T05:45:15;35.47;;;28.33;;
2824;SDS011;1420;51.324;12.344;2023-03-26T05:47:42;52.43;;;47.60;;
2824;SDS011;1420;51.324;12.344;2023-03-26T05:50:09;109.63;;;100.10;;
2824;SDS011;1420;51.324;12.344;2023-03-26T05:52:37;41.37;;;36.85;;
2824;SDS011;1420;51.324;12.344;2023-03-26T05:55:04;35.20;;;26.73;;
2824;SDS011;1420;51.324;12.344;2023-03-26T05:57:31;32.25;;;20.93;;
2824;SDS011;1420;51.324;12.344;2023-03-26T05:59:59;33.15;;;24.17;;
2824;SDS011;1420;51.324;12.344;2023-03-26T06:02:26;34.37;;;27.73;;
2824;SDS011;1420;51.324;12.344;2023-03-26T06:04:53;41.10;;;29.45;;
2824;SDS011;1420;51.324;12.344;2023-03-26T06:07:21;51.03;;;46.15;;
2824;SDS011;1420;51.324;12.344;2023-03-26T06:09:49;34.57;;;26.30;;
2824;SDS011;1420;51.324;12.344;2023-03-26T06:12:17;31.92;;;22.32;;
2824;SDS011;1420;51.324;12.344;2023-03-26T06:14:45;48.23;;;44.05;;
2824;SDS011;1420;51.324;12.344;2023-03-26T06:17:12;34.63;;;23.80;;
2824;SDS011;1420;51.324;12.344;2023-03-26T06:19:43;34.60;;;26.80;;
2824;SDS011;1420;51.324;12.344;2023-03-26T06:22:11;25.18;;;13.12;;
2824;SDS011;1420;51.324;12.344;2023-03-26T06:24:38;31.95;;;25.27;;
2824;SDS011;1420;51.324;12.344;2023-03-26T06:27:05;39.27;;;35.25;;
2824;SDS011;1420;51.324;12.344;2023-03-26T06:29:32;28.38;;;18.73;;
2824;SDS011;1420;51.324;12.344;2023-03-26T06:32:00;62.78;;;57.70;;
2824;SDS011;1420;51.324;12.344;2023-03-26T06:34:27;127.23;;;118.63;;
2824;SDS011;1420;51.324;12.344;2023-03-26T06:36:54;37.48;;;33.18;;
2824;SDS011;1420;51.324;12.344;2023-03-26T06:39:22;34.60;;;21.38;;
2824;SDS011;1420;51.324;12.344;2023-03-26T06:41:49;96.10;;;88.52;;
2824;SDS011;1420;51.324;12.344;2023-03-26T06:44:16;33.00;;;27.55;;
2824;SDS011;1420;51.324;12.344;2023-03-26T06:46:43;60.92;;;55.92;;
2824;SDS011;1420;51.324;12.344;2023-03-26T06:49:10;33.63;;;24.50;;
2824;SDS011;1420;51.324;12.344;2023-03-26T06:51:38;57.37;;;52.35;;
2824;SDS011;1420;51.324;12.344;2023-03-26T06:54:06;36.32;;;28.92;;
2824;SDS011;1420;51.324;12.344;2023-03-26T06:56:34;65.53;;;60.13;;
2824;SDS011;1420;51.324;12.344;2023-03-26T06:59:02;60.35;;;54.95;;
2824;SDS011;1420;51.324;12.344;2023-03-26T07:01:29;35.18;;;29.18;;
2824;SDS011;1420;51.324;12.344;2023-03-26T07:03:57;40.03;;;30.95;;
2824;SDS011;1420;51.324;12.344;2023-03-26T07:06:25;35.40;;;27.53;;
2824;SDS011;1420;51.324;12.344;2023-03-26T07:08:52;35.53;;;30.42;;
2824;SDS011;1420;51.324;12.344;2023-03-26T07:11:19;45.32;;;40.65;;
2824;SDS011;1420;51.324;12.344;2023-03-26T07:13:47;40.08;;;36.22;;
2824;SDS011;1420;51.324;12.344;2023-03-26T07:16:15;49.05;;;44.50;;
2824;SDS011;1420;51.324;12.344;2023-03-26T07:18:42;51.13;;;46.52;;
2824;SDS011;1420;51.324;12.344;2023-03-26T07:21:09;40.98;;;36.82;;
2824;SDS011;1420;51.324;12.344;2023-03-26T07:23:37;97.30;;;90.10;;
2824;SDS011;1420;51.324;12.344;2023-03-26T07:26:12;37.45;;;32.43;;
2824;SDS011;1420;51.324;12.344;2023-03-26T07:28:54;37.97;;;26.62;;
2824;SDS011;1420;51.324;12.344;2023-03-26T07:31:23;40.92;;;33.85;;
2824;SDS011;1420;51.324;12.344;2023-03-26T07:33:52;38.37;;;32.25;;
2824;SDS011;1420;51.324;12.344;2023-03-26T07:36:26;76.18;;;70.25;;
2824;SDS011;1420;51.324;12.344;2023-03-26T07:38:55;43.53;;;38.92;;
2824;SDS011;1420;51.324;12.344;2023-03-26T07:41:37;82.28;;;75.67;;
2824;SDS011;1420;51.324;12.344;2023-03-26T07:46:45;32.30;;;21.80;;
2824;SDS011;1420;51.324;12.344;2023-03-26T07:49:12;53.25;;;47.82;;
2824;SDS011;1420;51.324;12.344;2023-03-26T07:51:40;81.95;;;75.77;;
2824;SDS011;1420;51.324;12.344;2023-03-26T07:54:08;38.97;;;30.18;;
2824;SDS011;1420;51.324;12.344;2023-03-26T07:56:36;46.02;;;41.10;;
2824;SDS011;1420;51.324;12.344;2023-03-26T07:59:08;48.30;;;37.52;;
2824;SDS011;1420;51.324;12.344;2023-03-26T08:01:40;214.40;;;201.63;;
2824;SDS011;1420;51.324;12.344;2023-03-26T08:04:11;60.38;;;54.63;;
2824;SDS011;1420;51.324;12.344;2023-03-26T08:06:38;73.94;;;67.76;;
2824;SDS011;1420;51.324;12.344;2023-03-26T08:09:08;53.34;;;48.24;;
2824;SDS011;1420;51.324;12.344;2023-03-26T08:17:08;58.42;;;52.66;;
2824;SDS011;1420;51.324;12.344;2023-03-26T08:19:54;99.34;;;91.14;;
2824;SDS011;1420;51.324;12.344;2023-03-26T08:22:22;62.54;;;56.86;;
2824;SDS011;1420;51.324;12.344;2023-03-26T08:25:26;69.20;;;63.08;;
2824;SDS011;1420;51.324;12.344;2023-03-26T08:27:40;58.74;;;53.10;;
2824;SDS011;1420;51.324;12.344;2023-03-26T08:30:08;48.34;;;41.74;;
2824;SDS011;1420;51.324;12.344;2023-03-26T08:32:41;68.26;;;62.06;;
2824;SDS011;1420;51.324;12.344;2023-03-26T08:35:10;93.82;;;86.46;;
2824;SDS011;1420;51.324;12.344;2023-03-26T08:37:35;68.30;;;62.34;;
2824;SDS011;1420;51.324;12.344;2023-03-26T08:40:03;66.40;;;60.34;;
2824;SDS011;1420;51.324;12.344;2023-03-26T08:42:36;47.78;;;42.32;;
2824;SDS011;1420;51.324;12.344;2023-03-26T08:45:47;60.96;;;55.14;;
2824;SDS011;1420;51.324;12.344;2023-03-26T08:50:58;50.30;;;41.36;;
2824;SDS011;1420;51.324;12.344;2023-03-26T08:53:46;105.42;;;98.20;;
2824;SDS011;1420;51.324;12.344;2023-03-26T08:56:17;105.56;;;97.94;;
2824;SDS011;1420;51.324;12.344;2023-03-26T08:58:54;52.78;;;47.44;;
2824;SDS011;1420;51.324;12.344;2023-03-26T09:05:06;40.42;;;31.18;;
2824;SDS011;1420;51.324;12.344;2023-03-26T09:07:42;48.50;;;43.32;;
2824;SDS011;1420;51.324;12.344;2023-03-26T09:10:15;40.72;;;30.58;;
2824;SDS011;1420;51.324;12.344;2023-03-26T09:12:51;34.30;;;14.54;;
2824;SDS011;1420;51.324;12.344;2023-03-26T09:15:42;37.24;;;22.86;;
2824;SDS011;1420;51.324;12.344;2023-03-26T09:18:50;39.20;;;25.88;;
2824;SDS011;1420;51.324;12.344;2023-03-26T09:24:01;47.50;;;38.44;;
2824;SDS011;1420;51.324;12.344;2023-03-26T09:26:28;54.28;;;48.78;;
2824;SDS011;1420;51.324;12.344;2023-03-26T09:29:01;59.60;;;53.04;;
2824;SDS011;1420;51.324;12.344;2023-03-26T09:34:15;56.00;;;50.24;;
2824;SDS011;1420;51.324;12.344;2023-03-26T09:36:50;131.38;;;122.50;;
2824;SDS011;1420;51.324;12.344;2023-03-26T09:39:16;286.50;;;270.46;;
2824;SDS011;1420;51.324;12.344;2023-03-26T09:42:03;185.86;;;175.48;;
2824;SDS011;1420;51.324;12.344;2023-03-26T09:44:37;217.56;;;205.86;;
2824;SDS011;1420;51.324;12.344;2023-03-26T09:47:37;161.42;;;151.64;;
2824;SDS011;1420;51.324;12.344;2023-03-26T09:57:51;176.20;;;165.82;;
2824;SDS011;1420;51.324;12.344;2023-03-26T10:00:27;180.76;;;170.38;;
2824;SDS011;1420;51.324;12.344;2023-03-26T10:03:02;199.86;;;188.92;;
2824;SDS011;1420;51.324;12.344;2023-03-26T10:05:54;128.02;;;119.36;;
2824;SDS011;1420;51.324;12.344;2023-03-26T10:08:29;135.34;;;126.60;;
2824;SDS011;1420;51.324;12.344;2023-03-26T10:10:56;140.52;;;131.60;;
2824;SDS011;1420;51.324;12.344;2023-03-26T10:16:25;130.76;;;121.42;;
2824;SDS011;1420;51.324;12.344;2023-03-26T10:19:04;206.94;;;195.40;;
2824;SDS011;1420;51.324;12.344;2023-03-26T10:24:24;299.38;;;283.98;;
2824;SDS011;1420;51.324;12.344;2023-03-26T10:26:54;426.44;;;405.68;;
2824;SDS011;1420;51.324;12.344;2023-03-26T10:32:16;508.80;;;483.86;;
2824;SDS011;1420;51.324;12.344;2023-03-26T10:34:55;401.30;;;382.36;;
2824;SDS011;1420;51.324;12.344;2023-03-26T10:37:40;356.06;;;338.90;;
2824;SDS011;1420;51.324;12.344;2023-03-26T10:43:01;318.44;;;302.94;;
2824;SDS011;1420;51.324;12.344;2023-03-26T10:45:52;297.18;;;282.46;;
2824;SDS011;1420;51.324;12.344;2023-03-26T10:48:35;254.84;;;241.68;;
2824;SDS011;1420;51.324;12.344;2023-03-26T10:51:06;249.70;;;236.38;;
2824;SDS011;1420;51.324;12.344;2023-03-26T10:53:36;184.08;;;173.62;;
2824;SDS011;1420;51.324;12.344;2023-03-26T10:56:11;268.64;;;255.52;;
2824;SDS011;1420;51.324;12.344;2023-03-26T10:58:33;305.94;;;290.80;;
2824;SDS011;1420;51.324;12.344;2023-03-26T11:01:02;323.82;;;307.98;;
2824;SDS011;1420;51.324;12.344;2023-03-26T11:06:41;354.62;;;337.86;;
2824;SDS011;1420;51.324;12.344;2023-03-26T11:12:00;327.34;;;311.38;;
2824;SDS011;1420;51.324;12.344;2023-03-26T11:14:43;387.02;;;368.26;;
2824;SDS011;1420;51.324;12.344;2023-03-26T11:19:49;548.74;;;520.36;;
2824;SDS011;1420;51.324;12.344;2023-03-26T11:22:19;403.26;;;383.54;;
2824;SDS011;1420;51.324;12.344;2023-03-26T11:27:32;330.04;;;313.82;;
2824;SDS011;1420;51.324;12.344;2023-03-26T11:30:02;336.98;;;319.78;;
2824;SDS011;1420;51.324;12.344;2023-03-26T11:32:46;349.52;;;332.22;;
2824;SDS011;1420;51.324;12.344;2023-03-26T11:35:17;281.44;;;267.06;;
2824;SDS011;1420;51.324;12.344;2023-03-26T11:37:45;285.32;;;270.60;;
2824;SDS011;1420;51.324;12.344;2023-03-26T11:40:15;277.20;;;262.70;;
2824;SDS011;1420;51.324;12.344;2023-03-26T11:42:42;306.50;;;291.12;;
2824;SDS011;1420;51.324;12.344;2023-03-26T11:45:13;334.68;;;318.06;;
2824;SDS011;1420;51.324;12.344;2023-03-26T11:47:45;288.00;;;273.26;;
2824;SDS011;1420;51.324;12.344;2023-03-26T11:50:14;321.92;;;305.50;;
2824;SDS011;1420;51.324;12.344;2023-03-26T11:52:43;369.26;;;350.96;;
2824;SDS011;1420;51.324;12.344;2023-03-26T11:55:10;312.56;;;296.62;;
2824;SDS011;1420;51.324;12.344;2023-03-26T11:57:37;323.44;;;307.06;;
2824;SDS011;1420;51.324;12.344;2023-03-26T12:00:09;315.22;;;299.32;;
2824;SDS011;1420;51.324;12.344;2023-03-26T12:02:37;291.20;;;276.34;;
2824;SDS011;1420;51.324;12.344;2023-03-26T12:05:12;288.66;;;274.06;;
2824;SDS011;1420;51.324;12.344;2023-03-26T12:07:52;326.54;;;310.26;;
2824;SDS011;1420;51.324;12.344;2023-03-26T12:10:24;303.76;;;288.66;;
2824;SDS011;1420;51.324;12.344;2023-03-26T12:12:58;285.50;;;271.18;;
2824;SDS011;1420;51.324;12.344;2023-03-26T12:15:24;353.08;;;335.24;;
2824;SDS011;1420;51.324;12.344;2023-03-26T12:17:53;376.62;;;357.50;;
2824;SDS011;1420;51.324;12.344;2023-03-26T12:20:29;287.28;;;272.68;;
2824;SDS011;1420;51.324;12.344;2023-03-26T12:23:01;415.66;;;395.18;;
2824;SDS011;1420;51.324;12.344;2023-03-26T12:25:29;406.00;;;385.82;;
2824;SDS011;1420;51.324;12.344;2023-03-26T12:27:57;206.90;;;195.34;;
2824;SDS011;1420;51.324;12.344;2023-03-26T12:30:39;266.36;;;251.88;;
2824;SDS011;1420;51.324;12.344;2023-03-26T12:33:23;143.50;;;134.56;;
2824;SDS011;1420;51.324;12.344;2023-03-26T12:35:56;211.48;;;198.36;;
2824;SDS011;1420;51.324;12.344;2023-03-26T12:38:31;361.68;;;339.86;;
2824;SDS011;1420;51.324;12.344;2023-03-26T12:41:07;292.44;;;277.22;;
2824;SDS011;1420;51.324;12.344;2023-03-26T12:43:43;322.12;;;304.73;;
2824;SDS011;1420;51.324;12.344;2023-03-26T12:48:47;119.78;;;112.12;;
2824;SDS011;1420;51.324;12.344;2023-03-26T12:51:19;141.97;;;133.03;;
2824;SDS011;1420;51.324;12.344;2023-03-26T12:54:03;117.13;;;109.42;;
2824;SDS011;1420;51.324;12.344;2023-03-26T12:56:30;122.92;;;115.02;;
2824;SDS011;1420;51.324;12.344;2023-03-26T12:59:00;94.53;;;87.78;;
2824;SDS011;1420;51.324;12.344;2023-03-26T13:01:35;46.73;;;42.27;;
2824;SDS011;1420;51.324;12.344;2023-03-26T13:04:23;44.88;;;40.60;;
2824;SDS011;1420;51.324;12.344;2023-03-26T13:06:49;42.40;;;38.12;;
2824;SDS011;1420;51.324;12.344;2023-03-26T13:09:21;79.32;;;72.10;;
2824;SDS011;1420;51.324;12.344;2023-03-26T13:12:12;40.42;;;33.20;;
2824;SDS011;1420;51.324;12.344;2023-03-26T13:15:51;39.60;;;32.66;;
2824;SDS011;1420;51.324;12.344;2023-03-26T13:18:06;43.18;;;38.78;;
2824;SDS011;1420;51.324;12.344;2023-03-26T13:20:18;46.08;;;41.24;;
2824;SDS011;1420;51.324;12.344;2023-03-26T13:23:28;51.74;;;46.80;;
2824;SDS011;1420;51.324;12.344;2023-03-26T13:25:41;42.82;;;38.26;;
2824;SDS011;1420;51.324;12.344;2023-03-26T13:28:10;51.55;;;47.07;;
2824;SDS011;1420;51.324;12.344;2023-03-26T13:30:38;60.24;;;55.16;;
2824;SDS011;1420;51.324;12.344;2023-03-26T13:35:47;61.10;;;55.78;;
2824;SDS011;1420;51.324;12.344;2023-03-26T13:38:24;91.98;;;85.10;;
2824;SDS011;1420;51.324;12.344;2023-03-26T13:41:31;49.78;;;44.98;;
2824;SDS011;1420;51.324;12.344;2023-03-26T13:48:58;94.12;;;88.04;;
2824;SDS011;1420;51.324;12.344;2023-03-26T13:51:33;87.27;;;80.87;;
2824;SDS011;1420;51.324;12.344;2023-03-26T13:54:06;76.73;;;70.97;;
2824;SDS011;1420;51.324;12.344;2023-03-26T13:56:38;302.15;;;278.08;;
2824;SDS011;1420;51.324;12.344;2023-03-26T13:59:06;116.10;;;108.38;;
2824;SDS011;1420;51.324;12.344;2023-03-26T14:01:35;148.74;;;138.68;;
2824;SDS011;1420;51.324;12.344;2023-03-26T14:04:05;76.45;;;70.37;;
2824;SDS011;1420;51.324;12.344;2023-03-26T14:06:39;78.63;;;72.95;;
2824;SDS011;1420;51.324;12.344;2023-03-26T14:09:14;95.93;;;89.85;;
2824;SDS011;1420;51.324;12.344;2023-03-26T14:17:32;84.10;;;78.03;;
2824;SDS011;1420;51.324;12.344;2023-03-26T14:22:45;81.58;;;74.88;;
2824;SDS011;1420;51.324;12.344;2023-03-26T14:28:01;256.08;;;234.57;;
2824;SDS011;1420;51.324;12.344;2023-03-26T14:30:38;186.98;;;175.67;;
2824;SDS011;1420;51.324;12.344;2023-03-26T14:33:06;50.85;;;46.42;;
2824;SDS011;1420;51.324;12.344;2023-03-26T14:35:38;37.42;;;34.22;;
2824;SDS011;1420;51.324;12.344;2023-03-26T14:40:56;41.05;;;37.15;;
2824;SDS011;1420;51.324;12.344;2023-03-26T14:46:13;79.70;;;73.72;;
2824;SDS011;1420;51.324;12.344;2023-03-26T14:49:04;43.05;;;39.35;;
2824;SDS011;1420;51.324;12.344;2023-03-26T14:51:39;25.30;;;22.62;;
2824;SDS011;1420;51.324;12.344;2023-03-26T14:54:08;53.93;;;49.63;;
2824;SDS011;1420;51.324;12.344;2023-03-26T14:59:53;29.20;;;26.38;;
2824;SDS011;1420;51.324;12.344;2023-03-26T15:07:42;53.43;;;49.22;;
2824;SDS011;1420;51.324;12.344;2023-03-26T15:10:21;45.85;;;42.10;;
2824;SDS011;1420;51.324;12.344;2023-03-26T15:15:55;25.47;;;22.82;;
2824;SDS011;1420;51.324;12.344;2023-03-26T15:29:48;31.18;;;28.25;;
2824;SDS011;1420;51.324;12.344;2023-03-26T15:32:24;38.22;;;34.85;;
2824;SDS011;1420;51.324;12.344;2023-03-26T15:35:06;46.15;;;31.68;;
2824;SDS011;1420;51.324;12.344;2023-03-26T15:37:47;35.68;;;32.35;;
2824;SDS011;1420;51.324;12.344;2023-03-26T15:40:17;34.05;;;30.30;;
2824;SDS011;1420;51.324;12.344;2023-03-26T15:42:51;25.85;;;23.25;;
2824;SDS011;1420;51.324;12.344;2023-03-26T15:45:20;29.38;;;26.50;;
2824;SDS011;1420;51.324;12.344;2023-03-26T15:50:31;46.10;;;41.68;;
2824;SDS011;1420;51.324;12.344;2023-03-26T15:53:04;51.35;;;47.38;;
2824;SDS011;1420;51.324;12.344;2023-03-26T15:55:33;56.15;;;51.70;;
2824;SDS011;1420;51.324;12.344;2023-03-26T15:58:17;26.68;;;23.27;;
2824;SDS011;1420;51.324;12.344;2023-03-26T16:00:50;28.63;;;25.78;;
2824;SDS011;1420;51.324;12.344;2023-03-26T16:03:27;33.83;;;29.92;;
2824;SDS011;1420;51.324;12.344;2023-03-26T16:06:29;28.72;;;25.90;;
2824;SDS011;1420;51.324;12.344;2023-03-26T16:09:03;26.30;;;22.63;;
2824;SDS011;1420;51.324;12.344;2023-03-26T16:14:37;52.17;;;47.67;;
2824;SDS011;1420;51.324;12.344;2023-03-26T16:16:57;34.52;;;31.22;;
2824;SDS011;1420;51.324;12.344;2023-03-26T16:19:30;33.52;;;30.58;;
2824;SDS011;1420;51.324;12.344;2023-03-26T16:22:10;32.60;;;26.98;;
2824;SDS011;1420;51.324;12.344;2023-03-26T16:24:34;35.95;;;32.62;;
2824;SDS011;1420;51.324;12.344;2023-03-26T16:27:04;33.42;;;30.22;;
2824;SDS011;1420;51.324;12.344;2023-03-26T16:29:33;28.02;;;24.97;;
2824;SDS011;1420;51.324;12.344;2023-03-26T16:34:51;22.92;;;19.95;;
2824;SDS011;1420;51.324;12.344;2023-03-26T16:40:48;34.37;;;30.92;;
2824;SDS011;1420;51.324;12.344;2023-03-26T16:43:29;37.15;;;34.18;;
2824;SDS011;1420;51.324;12.344;2023-03-26T16:45:43;22.25;;;13.47;;